createdAt,value
2018-12-10T00:02:26.449Z,2.52
2018-12-10T00:04:53.931Z,2.70
2018-12-10T00:07:21.161Z,2.58
2018-12-10T00:09:48.369Z,2.70
2018-12-10T00:12:15.557Z,2.70
2018-12-10T00:14:42.791Z,2.83
2018-12-10T00:17:10.097Z,2.92
2018-12-10T00:19:37.313Z,2.98
2018-12-10T00:22:04.513Z,3.42
2018-12-10T00:24:31.721Z,3.17
2018-12-10T00:26:59.026Z,2.60
2018-12-10T00:29:26.235Z,2.40
2018-12-10T00:31:53.536Z,2.08
2018-12-10T00:34:20.833Z,2.27
2018-12-10T00:36:48.041Z,2.35
2018-12-10T00:39:15.245Z,2.15
2018-12-10T00:41:42.456Z,2.52
2018-12-10T00:44:09.636Z,3.75
2018-12-10T00:46:36.944Z,2.80
2018-12-10T00:49:04.184Z,2.60
2018-12-10T00:51:31.427Z,2.70
2018-12-10T00:53:58.644Z,3.12
2018-12-10T00:56:26.239Z,2.62
2018-12-10T00:58:53.504Z,2.65
2018-12-10T01:01:20.863Z,2.08
2018-12-10T01:03:48.222Z,2.37
2018-12-10T01:06:15.522Z,2.17
2018-12-10T01:08:42.757Z,2.55
2018-12-10T01:11:09.988Z,1.80
2018-12-10T01:13:37.208Z,2.00
2018-12-10T01:16:04.449Z,1.50
2018-12-10T01:18:31.672Z,2.08
2018-12-10T01:20:58.887Z,2.37
2018-12-10T01:23:26.227Z,2.27
2018-12-10T01:25:53.449Z,2.60
2018-12-10T01:28:20.677Z,3.98
2018-12-10T01:30:47.908Z,2.47
2018-12-10T01:33:15.132Z,2.08
2018-12-10T01:35:42.477Z,2.67
2018-12-10T01:38:09.820Z,2.45
2018-12-10T01:40:37.045Z,2.42
2018-12-10T01:43:04.276Z,2.50
2018-12-10T01:45:31.750Z,2.10
2018-12-10T01:47:58.972Z,2.20
2018-12-10T01:50:26.172Z,2.42
2018-12-10T01:52:53.371Z,2.15
2018-12-10T01:55:20.680Z,2.00
2018-12-10T01:57:48.118Z,1.95
2018-12-10T02:00:15.555Z,1.77
2018-12-10T02:02:42.787Z,2.12
2018-12-10T02:05:10.085Z,1.70
2018-12-10T02:07:37.436Z,1.75
2018-12-10T02:10:05.878Z,1.95
2018-12-10T02:12:33.072Z,2.00
2018-12-10T02:15:00.256Z,2.15
2018-12-10T02:17:27.461Z,2.98
2018-12-10T02:19:54.700Z,2.05
2018-12-10T02:22:21.883Z,2.30
2018-12-10T02:24:49.073Z,2.50
2018-12-10T02:27:16.289Z,2.00
2018-12-10T02:29:43.592Z,3.10
2018-12-10T02:32:10.776Z,1.75
2018-12-10T02:34:38.369Z,2.02
2018-12-10T02:37:05.561Z,2.45
2018-12-10T02:39:32.856Z,1.82
2018-12-10T02:42:00.069Z,2.90
2018-12-10T02:44:27.266Z,2.42
2018-12-10T02:46:54.490Z,2.52
2018-12-10T02:49:21.793Z,2.50
2018-12-10T02:51:49.204Z,1.90
2018-12-10T02:54:16.392Z,1.90
2018-12-10T02:56:43.573Z,2.15
2018-12-10T02:59:10.773Z,2.22
2018-12-10T03:01:38.261Z,1.47
2018-12-10T03:04:05.491Z,2.15
2018-12-10T03:06:32.804Z,1.90
2018-12-10T03:08:59.996Z,2.15
2018-12-10T03:11:27.181Z,2.83
2018-12-10T03:13:54.390Z,2.60
2018-12-10T03:16:21.696Z,1.95
2018-12-10T03:18:48.884Z,2.00
2018-12-10T03:21:16.070Z,3.33
2018-12-10T03:23:43.378Z,1.70
2018-12-10T03:26:10.702Z,2.20
2018-12-10T03:28:37.880Z,1.52
2018-12-10T03:31:05.110Z,2.15
2018-12-10T03:33:32.319Z,2.75
2018-12-10T03:35:59.503Z,2.10
2018-12-10T03:38:27.361Z,2.10
2018-12-10T03:40:54.669Z,3.08
2018-12-10T03:43:21.964Z,2.60
2018-12-10T03:45:49.280Z,2.15
2018-12-10T03:48:16.473Z,3.08
2018-12-10T03:50:43.682Z,2.55
2018-12-10T03:53:10.873Z,2.65
2018-12-10T03:55:38.235Z,2.40
2018-12-10T03:58:05.425Z,2.27
2018-12-10T04:00:32.812Z,2.35
2018-12-10T04:03:00.007Z,2.10
2018-12-10T04:05:27.316Z,1.90
2018-12-10T04:07:54.499Z,2.27
2018-12-10T04:10:21.814Z,2.05
2018-12-10T04:12:49.116Z,2.02
2018-12-10T04:15:16.445Z,2.25
2018-12-10T04:17:43.640Z,2.58
2018-12-10T04:20:10.844Z,2.55
2018-12-10T04:22:38.037Z,1.80
2018-12-10T04:25:05.335Z,2.00
2018-12-10T04:27:32.799Z,1.60
2018-12-10T04:29:59.979Z,1.75
2018-12-10T04:32:27.178Z,1.65
2018-12-10T04:34:54.377Z,1.85
2018-12-10T04:37:21.571Z,1.82
2018-12-10T04:39:48.863Z,2.27
2018-12-10T04:42:16.069Z,1.87
2018-12-10T04:44:43.272Z,2.22
2018-12-10T04:47:10.471Z,2.05
2018-12-10T04:49:37.753Z,2.25
2018-12-10T04:52:05.321Z,1.98
2018-12-10T04:54:32.548Z,2.08
2018-12-10T04:56:59.893Z,2.10
2018-12-10T04:59:27.104Z,2.22
2018-12-10T05:01:54.547Z,2.05
2018-12-10T05:04:21.773Z,2.12
2018-12-10T05:06:49.004Z,2.20
2018-12-10T05:09:16.230Z,2.12
2018-12-10T05:11:43.448Z,2.98
2018-12-10T05:14:10.689Z,2.33
2018-12-10T05:16:38.031Z,2.47
2018-12-10T05:19:05.261Z,2.70
2018-12-10T05:21:32.476Z,2.90
2018-12-10T05:23:59.708Z,2.60
2018-12-10T05:26:26.991Z,2.20
2018-12-10T05:28:54.307Z,2.37
2018-12-10T05:31:21.516Z,2.17
2018-12-10T05:33:48.751Z,2.65
2018-12-10T05:36:15.968Z,2.22
2018-12-10T05:38:43.209Z,2.70
2018-12-10T05:41:10.419Z,2.10
2018-12-10T05:43:37.649Z,2.80
2018-12-10T05:46:04.881Z,2.17
2018-12-10T05:48:32.086Z,2.37
2018-12-10T05:50:59.333Z,2.83
2018-12-10T05:53:26.640Z,2.47
2018-12-10T05:55:53.870Z,2.27
2018-12-10T05:58:21.075Z,3.20
2018-12-10T06:00:48.321Z,2.70
2018-12-10T06:03:15.531Z,2.00
2018-12-10T06:05:42.756Z,2.30
2018-12-10T06:08:09.980Z,2.60
2018-12-10T06:10:37.207Z,2.92
2018-12-10T06:13:04.520Z,2.98
2018-12-10T06:15:31.749Z,2.40
2018-12-10T06:17:58.980Z,2.65
2018-12-10T06:20:26.256Z,2.83
2018-12-10T06:22:53.541Z,3.30
2018-12-10T06:25:20.895Z,2.90
2018-12-10T06:27:48.121Z,2.12
2018-12-10T06:30:15.347Z,2.70
2018-12-10T06:32:42.657Z,2.20
2018-12-10T06:35:09.909Z,2.75
2018-12-10T06:37:37.684Z,2.83
2018-12-10T06:40:05.634Z,3.70
2018-12-10T06:42:32.861Z,2.95
2018-12-10T06:45:00.081Z,3.10
2018-12-10T06:47:27.300Z,3.42
2018-12-10T06:49:54.517Z,2.62
2018-12-10T06:52:21.973Z,3.20
2018-12-10T06:54:49.197Z,2.47
2018-12-10T06:57:16.536Z,2.60
2018-12-10T06:59:43.751Z,2.37
2018-12-10T07:02:11.097Z,2.50
2018-12-10T07:04:38.303Z,1.90
2018-12-10T07:07:05.650Z,2.40
2018-12-10T07:09:32.863Z,2.60
2018-12-10T07:12:00.097Z,2.60
2018-12-10T07:14:27.317Z,2.72
2018-12-10T07:16:54.665Z,2.27
2018-12-10T07:19:21.884Z,2.80
2018-12-10T07:21:49.104Z,2.47
2018-12-10T07:24:16.321Z,2.60
2018-12-10T07:26:43.584Z,3.00
2018-12-10T07:29:10.807Z,2.50
2018-12-10T07:31:38.156Z,3.17
2018-12-10T07:34:05.378Z,2.20
2018-12-10T07:36:32.597Z,2.65
2018-12-10T07:38:59.812Z,2.30
2018-12-10T07:41:27.045Z,2.33
2018-12-10T07:43:54.377Z,2.20
2018-12-10T07:46:21.606Z,2.52
2018-12-10T07:48:48.939Z,2.30
2018-12-10T07:51:16.179Z,2.50
2018-12-10T07:53:43.613Z,1.98
2018-12-10T07:56:10.877Z,2.47
2018-12-10T07:58:38.116Z,1.90
2018-12-10T08:01:05.328Z,1.82
2018-12-10T08:03:32.587Z,1.70
2018-12-10T08:05:59.804Z,2.17
2018-12-10T08:08:27.111Z,2.33
2018-12-10T08:10:54.441Z,1.62
2018-12-10T08:13:21.674Z,1.80
2018-12-10T08:15:48.911Z,2.15
2018-12-10T08:18:16.141Z,1.82
2018-12-10T08:20:43.356Z,2.20
2018-12-10T08:23:10.639Z,1.92
2018-12-10T08:25:37.852Z,2.00
2018-12-10T08:28:05.223Z,2.40
2018-12-10T08:30:32.447Z,2.47
2018-12-10T08:32:59.791Z,1.85
2018-12-10T08:35:27.003Z,2.10
2018-12-10T08:37:54.241Z,2.00
2018-12-10T08:40:21.523Z,2.35
2018-12-10T08:42:49.032Z,2.15
2018-12-10T08:45:16.364Z,4.47
2018-12-10T08:47:43.706Z,2.20
2018-12-10T08:50:11.167Z,2.75
2018-12-10T08:52:38.375Z,2.40
2018-12-10T08:55:05.613Z,1.80
2018-12-10T08:57:32.874Z,1.60
2018-12-10T09:00:00.178Z,2.40
2018-12-10T09:02:27.512Z,1.90
2018-12-10T09:04:54.844Z,2.10
2018-12-10T09:07:22.185Z,1.75
2018-12-10T09:09:49.409Z,2.15
2018-12-10T09:12:16.633Z,2.20
2018-12-10T09:14:44.015Z,2.25
2018-12-10T09:17:11.252Z,2.20
2018-12-10T09:19:38.563Z,1.85
2018-12-10T09:22:05.896Z,2.72
2018-12-10T09:24:33.251Z,2.02
2018-12-10T09:27:00.468Z,2.20
2018-12-10T09:29:27.815Z,2.08
2018-12-10T09:31:55.143Z,2.30
2018-12-10T09:34:22.472Z,1.85
2018-12-10T09:36:50.189Z,2.62
2018-12-10T09:39:17.417Z,2.40
2018-12-10T09:41:44.645Z,2.37
2018-12-10T09:44:11.871Z,2.75
2018-12-10T09:46:39.097Z,2.08
2018-12-10T09:49:06.371Z,2.22
2018-12-10T09:51:33.716Z,2.47
2018-12-10T09:54:00.941Z,3.02
2018-12-10T09:56:28.284Z,2.30
2018-12-10T09:58:55.505Z,2.33
2018-12-10T10:01:22.731Z,1.90
2018-12-10T10:03:49.935Z,2.55
2018-12-10T10:06:17.189Z,2.67
2018-12-10T10:08:44.414Z,2.25
2018-12-10T10:11:11.627Z,2.70
2018-12-10T10:13:38.859Z,2.70
2018-12-10T10:16:06.097Z,2.80
2018-12-10T10:18:33.327Z,3.25
2018-12-10T10:21:00.556Z,3.20
2018-12-10T10:23:27.775Z,2.67
2018-12-10T10:25:55.025Z,1.98
2018-12-10T10:28:22.240Z,2.27
2018-12-10T10:30:49.464Z,2.02
2018-12-10T10:33:16.705Z,2.50
2018-12-10T10:35:43.920Z,2.05
2018-12-10T10:38:11.149Z,2.42
2018-12-10T10:40:38.430Z,2.75
2018-12-10T10:43:05.729Z,3.10
2018-12-10T10:45:34.945Z,2.80
2018-12-10T10:48:02.452Z,3.22
2018-12-10T10:50:29.681Z,3.22
2018-12-10T10:52:56.929Z,3.40
2018-12-10T10:55:24.160Z,3.05
2018-12-10T10:57:51.391Z,2.20
2018-12-10T11:00:24.469Z,2.47
2018-12-10T11:02:53.484Z,2.70
2018-12-10T11:05:20.994Z,3.08
2018-12-10T11:07:48.345Z,2.40
2018-12-10T11:10:15.607Z,2.92
2018-12-10T11:12:42.884Z,2.83
2018-12-10T11:15:10.216Z,2.70
2018-12-10T11:17:37.440Z,3.15
2018-12-10T11:20:05.456Z,3.27
2018-12-10T11:22:32.677Z,3.27
2018-12-10T11:24:59.897Z,2.95
2018-12-10T11:27:27.198Z,2.90
2018-12-10T11:29:54.421Z,3.12
2018-12-10T11:32:21.673Z,2.67
2018-12-10T11:34:48.937Z,2.50
2018-12-10T11:37:16.158Z,2.83
2018-12-10T11:39:43.392Z,2.98
2018-12-10T11:42:10.609Z,3.45
2018-12-10T11:44:37.835Z,2.95
2018-12-10T11:47:12.917Z,2.85
2018-12-10T11:49:34.321Z,2.42
2018-12-10T11:52:01.514Z,3.72
2018-12-10T11:54:28.712Z,2.90
2018-12-10T11:56:56.005Z,2.87
2018-12-10T11:59:23.201Z,3.30
2018-12-10T12:01:50.619Z,3.87
2018-12-10T12:04:17.832Z,2.77
2018-12-10T12:06:45.011Z,2.70
2018-12-10T12:09:12.504Z,3.72
2018-12-10T12:11:39.886Z,3.10
2018-12-10T12:14:07.232Z,3.15
2018-12-10T12:16:34.556Z,3.40
2018-12-10T12:19:01.918Z,3.52
2018-12-10T12:21:29.121Z,3.70
2018-12-10T12:23:56.341Z,3.67
2018-12-10T12:26:23.532Z,3.40
2018-12-10T12:28:50.725Z,3.15
2018-12-10T12:31:18.060Z,3.52
2018-12-10T12:33:45.248Z,3.30
2018-12-10T12:36:12.461Z,3.42
2018-12-10T12:38:39.640Z,3.50
2018-12-10T12:41:06.837Z,3.27
2018-12-10T12:43:34.072Z,4.75
2018-12-10T12:46:01.273Z,3.70
2018-12-10T12:48:28.580Z,3.20
2018-12-10T12:50:55.880Z,4.45
2018-12-10T12:53:23.078Z,4.40
2018-12-10T12:55:50.277Z,3.27
2018-12-10T12:58:17.517Z,2.95
2018-12-10T13:00:44.833Z,2.37
2018-12-10T13:03:12.016Z,2.72
2018-12-10T13:05:39.213Z,2.27
2018-12-10T13:08:06.407Z,2.27
2018-12-10T13:10:33.680Z,2.55
2018-12-10T13:13:00.865Z,2.65
2018-12-10T13:15:28.231Z,2.65
2018-12-10T13:17:55.460Z,2.70
2018-12-10T13:20:22.716Z,2.70
2018-12-10T13:22:50.047Z,2.50
2018-12-10T13:25:17.356Z,2.40
2018-12-10T13:27:44.595Z,2.83
2018-12-10T13:30:11.983Z,2.72
2018-12-10T13:32:39.227Z,2.20
2018-12-10T13:35:06.537Z,2.42
2018-12-10T13:37:33.770Z,1.77
2018-12-10T13:40:00.960Z,2.42
2018-12-10T13:42:28.289Z,2.42
2018-12-10T13:44:55.571Z,1.70
2018-12-10T13:47:22.763Z,2.35
2018-12-10T13:49:50.272Z,2.10
2018-12-10T13:52:17.481Z,2.83
2018-12-10T13:54:44.735Z,2.30
2018-12-10T13:57:12.160Z,2.22
2018-12-10T13:59:40.179Z,2.05
2018-12-10T14:02:07.404Z,2.62
2018-12-10T14:04:43.649Z,2.47
2018-12-10T14:07:10.913Z,3.80
2018-12-10T14:09:38.354Z,2.20
2018-12-10T14:12:05.669Z,2.85
2018-12-10T14:14:32.857Z,2.70
2018-12-10T14:17:00.056Z,2.35
2018-12-10T14:19:27.358Z,2.83
2018-12-10T14:21:54.560Z,2.70
2018-12-10T14:24:21.985Z,3.00
2018-12-10T14:26:49.357Z,2.92
2018-12-10T14:29:17.080Z,3.02
2018-12-10T14:31:44.527Z,2.70
2018-12-10T14:34:17.356Z,2.70
2018-12-10T14:36:44.650Z,2.37
2018-12-10T14:39:11.936Z,2.98
2018-12-10T14:41:39.128Z,2.55
2018-12-10T14:44:06.629Z,2.92
2018-12-10T14:46:33.819Z,2.72
2018-12-10T14:49:01.040Z,2.45
2018-12-10T14:51:28.459Z,3.17
2018-12-10T14:53:55.660Z,2.55
2018-12-10T14:56:23.032Z,2.52
2018-12-10T14:58:50.344Z,2.75
2018-12-10T15:01:17.649Z,2.87
2018-12-10T15:03:45.129Z,3.10
2018-12-10T15:06:12.427Z,3.17
2018-12-10T15:08:39.630Z,3.15
2018-12-10T15:11:06.944Z,3.20
2018-12-10T15:13:34.251Z,3.42
2018-12-10T15:16:01.672Z,3.10
2018-12-10T15:18:28.899Z,3.60
2018-12-10T15:20:56.084Z,3.20
2018-12-10T15:23:23.279Z,3.35
2018-12-10T15:25:50.670Z,3.08
2018-12-10T15:28:17.876Z,3.60
2018-12-10T15:30:45.061Z,2.70
2018-12-10T15:33:12.288Z,3.20
2018-12-10T15:35:39.492Z,2.77
2018-12-10T15:38:06.711Z,2.75
2018-12-10T15:40:33.953Z,2.60
2018-12-10T15:43:01.147Z,2.40
2018-12-10T15:45:29.081Z,2.55
2018-12-10T15:47:56.340Z,2.70
2018-12-10T15:50:23.584Z,3.27
2018-12-10T15:52:50.850Z,3.22
2018-12-10T15:55:18.093Z,3.42
2018-12-10T15:57:45.493Z,2.90
2018-12-10T16:00:12.849Z,3.33
2018-12-10T16:02:40.102Z,3.10
2018-12-10T16:05:07.568Z,2.83
2018-12-10T16:07:34.783Z,3.12
2018-12-10T16:10:02.180Z,3.30
2018-12-10T16:12:29.395Z,3.50
2018-12-10T16:14:56.621Z,3.60
2018-12-10T16:17:23.844Z,3.87
2018-12-10T16:19:51.210Z,3.60
2018-12-10T16:22:18.476Z,4.20
2018-12-10T16:24:45.881Z,3.85
2018-12-10T16:27:13.537Z,3.15
2018-12-10T16:29:40.748Z,3.85
2018-12-10T16:32:08.037Z,3.00
2018-12-10T16:34:35.329Z,3.33
2018-12-10T16:37:03.034Z,4.53
2018-12-10T16:39:30.290Z,3.77
2018-12-10T16:41:57.669Z,3.98
2018-12-10T16:44:24.905Z,4.17
2018-12-10T16:46:52.131Z,3.47
2018-12-10T16:49:19.613Z,3.85
2018-12-10T16:51:46.996Z,4.10
2018-12-10T16:54:14.569Z,4.10
2018-12-10T16:56:41.871Z,3.40
2018-12-10T16:59:09.220Z,3.60
2018-12-10T17:01:36.532Z,3.37
2018-12-10T17:04:03.991Z,3.60
2018-12-10T17:06:31.345Z,3.72
2018-12-10T17:08:58.615Z,3.75
2018-12-10T17:11:25.964Z,3.90
2018-12-10T17:13:54.403Z,4.60
2018-12-10T17:16:21.625Z,5.12
2018-12-10T17:18:48.868Z,3.60
2018-12-10T17:21:16.201Z,4.37
2018-12-10T17:23:43.550Z,4.33
2018-12-10T17:26:10.999Z,4.05
2018-12-10T17:28:38.226Z,3.98
2018-12-10T17:31:05.455Z,3.47
2018-12-10T17:33:32.680Z,4.83
2018-12-10T17:35:59.895Z,4.72
2018-12-10T17:38:27.123Z,5.05
2018-12-10T17:40:54.345Z,5.40
2018-12-10T17:43:21.651Z,7.90
2018-12-10T17:45:49.055Z,7.40
2018-12-10T17:48:16.305Z,6.30
2018-12-10T17:50:43.574Z,5.03
2018-12-10T17:53:10.825Z,5.03
2018-12-10T17:55:38.036Z,5.00
2018-12-10T17:58:05.403Z,4.40
2018-12-10T18:00:32.704Z,5.65
2018-12-10T18:02:59.921Z,4.62
2018-12-10T18:05:27.237Z,4.70
2018-12-10T18:07:54.428Z,4.20
2018-12-10T18:10:21.637Z,4.40
2018-12-10T18:12:48.823Z,4.42
2018-12-10T18:15:16.069Z,3.87
2018-12-10T18:17:43.252Z,4.75
2018-12-10T18:20:11.450Z,3.47
2018-12-10T18:22:38.639Z,4.28
2018-12-10T18:25:05.958Z,4.10
2018-12-10T18:27:33.225Z,3.95
2018-12-10T18:30:00.440Z,4.87
2018-12-10T18:32:27.693Z,4.42
2018-12-10T18:34:55.067Z,4.62
2018-12-10T18:37:22.301Z,5.03
2018-12-10T18:39:49.511Z,4.30
2018-12-10T18:42:16.865Z,5.25
2018-12-10T18:44:44.110Z,4.83
2018-12-10T18:47:11.419Z,5.70
2018-12-10T18:49:38.716Z,4.97
2018-12-10T18:52:05.960Z,4.55
2018-12-10T18:54:33.291Z,4.10
2018-12-10T18:57:00.542Z,3.40
2018-12-10T18:59:28.932Z,4.53
2018-12-10T19:01:56.320Z,3.60
2018-12-10T19:04:23.567Z,3.50
2018-12-10T19:06:50.796Z,3.30
2018-12-10T19:09:18.412Z,3.75
2018-12-10T19:11:45.669Z,3.60
2018-12-10T19:14:13.000Z,4.00
2018-12-10T19:16:40.240Z,3.70
2018-12-10T19:19:07.461Z,4.15
2018-12-10T19:21:34.795Z,4.92
2018-12-10T19:24:02.074Z,4.67
2018-12-10T19:26:29.415Z,4.17
2018-12-10T19:28:56.656Z,4.78
2018-12-10T19:31:23.881Z,5.10
2018-12-10T19:33:51.211Z,5.42
2018-12-10T19:36:18.785Z,5.12
2018-12-10T19:38:46.036Z,4.90
2018-12-10T19:41:13.309Z,4.92
2018-12-10T19:43:40.553Z,6.20
2018-12-10T19:46:07.914Z,4.90
2018-12-10T19:48:35.128Z,4.42
2018-12-10T19:51:02.460Z,4.08
2018-12-10T19:53:29.664Z,4.87
2018-12-10T19:55:56.959Z,4.55
2018-12-10T19:58:24.201Z,4.92
2018-12-10T20:00:51.565Z,5.58
2018-12-10T20:03:18.927Z,5.80
2018-12-10T20:05:52.052Z,5.72
2018-12-10T20:08:19.429Z,5.65
2018-12-10T20:10:46.872Z,6.95
2018-12-10T20:13:14.137Z,6.97
2018-12-10T20:15:41.347Z,5.50
2018-12-10T20:18:08.833Z,6.45
2018-12-10T20:20:36.333Z,6.65
2018-12-10T20:23:03.721Z,6.30
2018-12-10T20:25:31.076Z,6.05
2018-12-10T20:27:58.444Z,7.05
2018-12-10T20:30:25.763Z,6.22
2018-12-10T20:32:53.027Z,6.33
2018-12-10T20:35:20.301Z,6.47
2018-12-10T20:37:47.993Z,6.40
2018-12-10T20:40:15.739Z,5.90
2018-12-10T20:42:43.044Z,6.80
2018-12-10T20:45:10.420Z,5.90
2018-12-10T20:47:37.784Z,6.62
2018-12-10T20:50:05.313Z,7.30
2018-12-10T20:52:32.525Z,6.45
2018-12-10T20:54:59.784Z,6.00
2018-12-10T20:57:27.196Z,6.50
2018-12-10T20:59:54.611Z,7.08
2018-12-10T21:02:22.032Z,6.65
2018-12-10T21:04:49.333Z,6.03
2018-12-10T21:07:16.604Z,6.70
2018-12-10T21:09:43.790Z,6.60
2018-12-10T21:12:10.977Z,7.00
2018-12-10T21:14:38.192Z,5.72
2018-12-10T21:17:05.434Z,7.40
2018-12-10T21:19:32.965Z,7.05
2018-12-10T21:22:00.345Z,6.53
2018-12-10T21:24:27.664Z,6.22
2018-12-10T21:26:55.065Z,6.87
2018-12-10T21:29:22.439Z,6.85
2018-12-10T21:31:49.623Z,5.90
2018-12-10T21:34:16.820Z,6.05
2018-12-10T21:36:44.148Z,6.33
2018-12-10T21:39:11.369Z,6.37
2018-12-10T21:41:38.612Z,6.10
2018-12-10T21:44:05.865Z,7.37
2018-12-10T21:46:33.071Z,6.15
2018-12-10T21:49:00.367Z,5.22
2018-12-10T21:51:27.591Z,5.58
2018-12-10T21:53:54.958Z,5.80
2018-12-10T21:56:22.360Z,4.75
2018-12-10T21:58:49.680Z,5.65
2018-12-10T22:01:17.016Z,5.12
2018-12-10T22:03:44.280Z,4.42
2018-12-10T22:06:11.847Z,5.37
2018-12-10T22:08:39.143Z,5.40
2018-12-10T22:11:06.575Z,6.60
2018-12-10T22:13:33.839Z,5.50
2018-12-10T22:16:01.216Z,4.50
2018-12-10T22:18:28.501Z,5.17
2018-12-10T22:20:55.823Z,4.97
2018-12-10T22:23:23.164Z,5.15
2018-12-10T22:25:50.408Z,4.33
2018-12-10T22:28:17.624Z,4.78
2018-12-10T22:30:44.975Z,5.05
2018-12-10T22:33:12.271Z,4.97
2018-12-10T22:35:39.524Z,5.15
2018-12-10T22:38:06.842Z,4.70
2018-12-10T22:40:34.092Z,5.35
2018-12-10T22:43:01.512Z,5.47
2018-12-10T22:45:28.775Z,5.03
2018-12-10T22:47:55.986Z,4.58
2018-12-10T22:50:23.298Z,4.78
2018-12-10T22:52:50.550Z,4.90
2018-12-10T22:55:17.895Z,4.08
2018-12-10T22:57:45.404Z,4.45
2018-12-10T23:00:12.939Z,4.22
2018-12-10T23:02:40.123Z,4.65
2018-12-10T23:05:07.547Z,4.15
2018-12-10T23:07:34.757Z,4.12
2018-12-10T23:10:02.536Z,4.70
2018-12-10T23:12:29.972Z,4.33
2018-12-10T23:14:57.275Z,4.15
2018-12-10T23:17:24.459Z,3.90
2018-12-10T23:19:51.639Z,4.30
2018-12-10T23:22:18.939Z,4.05
2018-12-10T23:24:46.124Z,3.50
2018-12-10T23:27:13.427Z,3.98
2018-12-10T23:29:40.610Z,4.00
2018-12-10T23:32:07.799Z,3.95
2018-12-10T23:34:34.980Z,2.92
2018-12-10T23:37:02.424Z,3.33
2018-12-10T23:39:29.608Z,4.42
2018-12-10T23:41:56.808Z,3.77
2018-12-10T23:44:29.864Z,4.20
2018-12-10T23:46:57.054Z,3.60
2018-12-10T23:49:24.248Z,3.80
2018-12-10T23:51:51.576Z,3.83
2018-12-10T23:54:18.751Z,3.40
2018-12-10T23:56:45.980Z,3.60
2018-12-10T23:59:13.155Z,3.67
